sensor_id;sensor_type;location;lat;lon;timestamp;pressure;altitude;pressure_sealevel;temperature;humidity
3294;BME280;1659;51.470;6.770;2023-02-01T00:02:12;101874.00;;;5.33;99.08
3294;BME280;1659;51.470;6.770;2023-02-01T00:04:38;101870.59;;;5.37;99.33
3294;BME280;1659;51.470;6.770;2023-02-01T00:07:05;101877.69;;;5.43;98.53
3294;BME280;1659;51.470;6.770;2023-02-01T00:09:32;101876.84;;;5.44;98.30
3294;BME280;1659;51.470;6.770;2023-02-01T00:11:58;101866.44;;;5.47;97.96
3294;BME280;1659;51.470;6.770;2023-02-01T00:14:27;101872.59;;;5.49;98.41
3294;BME280;1659;51.470;6.770;2023-02-01T00:16:55;101875.25;;;5.51;97.97
3294;BME280;1659;51.470;6.770;2023-02-01T00:19:21;101872.66;;;5.54;97.25
3294;BME280;1659;51.470;6.770;2023-02-01T00:21:48;101872.72;;;5.57;97.16
3294;BME280;1659;51.470;6.770;2023-02-01T00:24:14;101873.59;;;5.57;97.16
3294;BME280;1659;51.470;6.770;2023-02-01T00:26:43;101868.38;;;5.59;96.37
3294;BME280;1659;51.470;6.770;2023-02-01T00:29:13;101870.16;;;5.60;96.33
3294;BME280;1659;51.470;6.770;2023-02-01T00:31:40;101861.44;;;5.61;96.23
3294;BME280;1659;51.470;6.770;2023-02-01T00:34:09;101858.84;;;5.62;95.42
3294;BME280;1659;51.470;6.770;2023-02-01T00:36:37;101847.50;;;5.63;95.16
3294;BME280;1659;51.470;6.770;2023-02-01T00:39:04;101840.50;;;5.64;94.81
3294;BME280;1659;51.470;6.770;2023-02-01T00:41:30;101837.91;;;5.64;93.98
3294;BME280;1659;51.470;6.770;2023-02-01T00:43:57;101816.91;;;5.64;94.27
3294;BME280;1659;51.470;6.770;2023-02-01T00:46:24;101817.81;;;5.66;93.62
3294;BME280;1659;51.470;6.770;2023-02-01T00:48:51;101829.22;;;5.66;93.71
3294;BME280;1659;51.470;6.770;2023-02-01T00:51:21;101828.34;;;5.67;93.34
3294;BME280;1659;51.470;6.770;2023-02-01T00:53:48;101826.63;;;5.68;93.70
3294;BME280;1659;51.470;6.770;2023-02-01T00:56:15;101830.09;;;5.67;93.46
3294;BME280;1659;51.470;6.770;2023-02-01T00:58:42;101823.97;;;5.66;93.67
3294;BME280;1659;51.470;6.770;2023-02-01T01:01:10;101837.97;;;5.67;93.86
3294;BME280;1659;51.470;6.770;2023-02-01T01:03:39;101844.09;;;5.69;93.99
3294;BME280;1659;51.470;6.770;2023-02-01T01:06:08;101847.66;;;5.73;93.18
3294;BME280;1659;51.470;6.770;2023-02-01T01:08:37;101842.47;;;5.74;93.33
3294;BME280;1659;51.470;6.770;2023-02-01T01:11:05;101845.19;;;5.79;93.30
3294;BME280;1659;51.470;6.770;2023-02-01T01:13:32;101841.72;;;5.81;93.13
3294;BME280;1659;51.470;6.770;2023-02-01T01:16:00;101844.41;;;5.84;93.03
3294;BME280;1659;51.470;6.770;2023-02-01T01:18:27;101842.69;;;5.86;93.19
3294;BME280;1659;51.470;6.770;2023-02-01T01:20:54;101847.97;;;5.88;92.94
3294;BME280;1659;51.470;6.770;2023-02-01T01:23:21;101842.75;;;5.90;93.09
3294;BME280;1659;51.470;6.770;2023-02-01T01:25:49;101835.78;;;5.92;92.58
3294;BME280;1659;51.470;6.770;2023-02-01T01:28:15;101834.06;;;5.94;92.35
3294;BME280;1659;51.470;6.770;2023-02-01T01:30:42;101840.19;;;5.93;92.67
3294;BME280;1659;51.470;6.770;2023-02-01T01:33:09;101837.53;;;5.91;92.78
3294;BME280;1659;51.470;6.770;2023-02-01T01:35:35;101839.28;;;5.91;92.98
3294;BME280;1659;51.470;6.770;2023-02-01T01:38:03;101847.16;;;5.91;92.78
3294;BME280;1659;51.470;6.770;2023-02-01T01:40:30;101836.66;;;5.91;92.44
3294;BME280;1659;51.470;6.770;2023-02-01T01:42:58;101841.88;;;5.89;92.35
3294;BME280;1659;51.470;6.770;2023-02-01T01:45:27;101839.25;;;5.89;92.19
3294;BME280;1659;51.470;6.770;2023-02-01T01:47:56;101827.81;;;5.87;92.10
3294;BME280;1659;51.470;6.770;2023-02-01T01:50:27;101817.31;;;5.85;91.81
3294;BME280;1659;51.470;6.770;2023-02-01T01:52:58;101814.63;;;5.82;92.04
3294;BME280;1659;51.470;6.770;2023-02-01T01:55:31;101823.31;;;5.80;91.94
3294;BME280;1659;51.470;6.770;2023-02-01T01:58:02;101816.28;;;5.77;91.72
3294;BME280;1659;51.470;6.770;2023-02-01T02:00:31;101819.72;;;5.75;91.91
3294;BME280;1659;51.470;6.770;2023-02-01T02:03:00;101819.72;;;5.73;92.12
3294;BME280;1659;51.470;6.770;2023-02-01T02:05:30;101822.31;;;5.72;91.91
3294;BME280;1659;51.470;6.770;2023-02-01T02:07:58;101812.66;;;5.71;91.49
3294;BME280;1659;51.470;6.770;2023-02-01T02:10:25;101813.50;;;5.68;91.64
3294;BME280;1659;51.470;6.770;2023-02-01T02:13:15;101816.03;;;5.63;90.95
3294;BME280;1659;51.470;6.770;2023-02-01T02:15:46;101808.94;;;5.58;90.87
3294;BME280;1659;51.470;6.770;2023-02-01T02:18:18;101815.84;;;5.53;91.30
3294;BME280;1659;51.470;6.770;2023-02-01T02:21:11;101807.88;;;5.48;91.13
3294;BME280;1659;51.470;6.770;2023-02-01T02:24:15;101799.09;;;5.46;90.36
3294;BME280;1659;51.470;6.770;2023-02-01T02:30:19;101805.16;;;5.42;90.21
3294;BME280;1659;51.470;6.770;2023-02-01T02:33:24;101808.59;;;5.39;90.34
3294;BME280;1659;51.470;6.770;2023-02-01T02:35:57;101803.25;;;5.35;90.30
3294;BME280;1659;51.470;6.770;2023-02-01T02:38:31;101796.13;;;5.26;89.96
3294;BME280;1659;51.470;6.770;2023-02-01T02:41:05;101796.81;;;5.19;89.89
3294;BME280;1659;51.470;6.770;2023-02-01T02:43:37;101798.53;;;5.17;89.87
3294;BME280;1659;51.470;6.770;2023-02-01T02:46:30;101791.38;;;5.08;89.82
3294;BME280;1659;51.470;6.770;2023-02-01T02:49:22;101788.66;;;5.02;89.76
3294;BME280;1659;51.470;6.770;2023-02-01T02:51:54;101799.84;;;4.96;89.87
3294;BME280;1659;51.470;6.770;2023-02-01T02:54:42;101801.53;;;4.92;89.89
3294;BME280;1659;51.470;6.770;2023-02-01T02:57:13;101794.44;;;4.87;89.76
3294;BME280;1659;51.470;6.770;2023-02-01T03:00:00;101793.47;;;4.83;89.56
3294;BME280;1659;51.470;6.770;2023-02-01T03:02:46;101790.84;;;4.82;89.96
3294;BME280;1659;51.470;6.770;2023-02-01T03:05:39;101790.88;;;4.83;89.81
3294;BME280;1659;51.470;6.770;2023-02-01T03:08:11;101786.50;;;4.84;89.35
3294;BME280;1659;51.470;6.770;2023-02-01T03:10:44;101786.50;;;4.84;89.40
3294;BME280;1659;51.470;6.770;2023-02-01T03:13:20;101782.16;;;4.84;89.12
3294;BME280;1659;51.470;6.770;2023-02-01T03:15:52;101769.94;;;4.85;89.41
3294;BME280;1659;51.470;6.770;2023-02-01T03:18:23;101766.50;;;4.87;89.08
3294;BME280;1659;51.470;6.770;2023-02-01T03:20:55;101753.53;;;4.94;89.40
3294;BME280;1659;51.470;6.770;2023-02-01T03:23:27;101751.03;;;4.98;88.75
3294;BME280;1659;51.470;6.770;2023-02-01T03:25:56;101748.50;;;5.04;88.64
3294;BME280;1659;51.470;6.770;2023-02-01T03:28:25;101759.13;;;5.10;88.07
3294;BME280;1659;51.470;6.770;2023-02-01T03:30:54;101752.22;;;5.14;88.81
3294;BME280;1659;51.470;6.770;2023-02-01T03:33:23;101753.16;;;5.18;88.36
3294;BME280;1659;51.470;6.770;2023-02-01T03:35:59;101745.34;;;5.22;88.00
3294;BME280;1659;51.470;6.770;2023-02-01T03:38:30;101748.06;;;5.27;88.30
3294;BME280;1659;51.470;6.770;2023-02-01T03:41:03;101748.97;;;5.29;88.17
3294;BME280;1659;51.470;6.770;2023-02-01T03:43:38;101750.78;;;5.32;88.31
3294;BME280;1659;51.470;6.770;2023-02-01T03:46:11;101739.47;;;5.34;87.93
3294;BME280;1659;51.470;6.770;2023-02-01T03:48:39;101742.16;;;5.37;87.31
3294;BME280;1659;51.470;6.770;2023-02-01T03:51:08;101735.22;;;5.41;87.37
3294;BME280;1659;51.470;6.770;2023-02-01T03:53:36;101727.44;;;5.44;87.49
3294;BME280;1659;51.470;6.770;2023-02-01T03:56:06;101713.47;;;5.46;86.99
3294;BME280;1659;51.470;6.770;2023-02-01T03:58:33;101715.31;;;5.51;87.12
3294;BME280;1659;51.470;6.770;2023-02-01T04:01:00;101715.34;;;5.54;87.03
3294;BME280;1659;51.470;6.770;2023-02-01T04:03:27;101711.03;;;5.56;87.30
3294;BME280;1659;51.470;6.770;2023-02-01T04:05:54;101716.31;;;5.59;86.80
3294;BME280;1659;51.470;6.770;2023-02-01T04:08:23;101721.59;;;5.62;86.71
3294;BME280;1659;51.470;6.770;2023-02-01T04:10:49;101717.22;;;5.61;86.87
3294;BME280;1659;51.470;6.770;2023-02-01T04:13:16;101712.81;;;5.58;86.69
3294;BME280;1659;51.470;6.770;2023-02-01T04:15:42;101729.31;;;5.53;86.60
3294;BME280;1659;51.470;6.770;2023-02-01T04:18:10;101723.97;;;5.46;87.05
3294;BME280;1659;51.470;6.770;2023-02-01T04:20:37;101725.59;;;5.40;86.94
3294;BME280;1659;51.470;6.770;2023-02-01T04:23:03;101718.47;;;5.33;87.27
3294;BME280;1659;51.470;6.770;2023-02-01T04:25:31;101730.59;;;5.27;87.25
3294;BME280;1659;51.470;6.770;2023-02-01T04:27:58;101748.06;;;5.27;87.19
3294;BME280;1659;51.470;6.770;2023-02-01T04:30:25;101740.25;;;5.28;87.29
3294;BME280;1659;51.470;6.770;2023-02-01T04:32:51;101740.28;;;5.30;87.08
3294;BME280;1659;51.470;6.770;2023-02-01T04:35:18;101728.03;;;5.30;87.05
3294;BME280;1659;51.470;6.770;2023-02-01T04:37:44;101733.31;;;5.32;87.14
3294;BME280;1659;51.470;6.770;2023-02-01T04:40:11;101737.72;;;5.35;86.95
3294;BME280;1659;51.470;6.770;2023-02-01T04:42:39;101731.66;;;5.37;87.12
3294;BME280;1659;51.470;6.770;2023-02-01T04:45:07;101742.22;;;5.40;86.87
3294;BME280;1659;51.470;6.770;2023-02-01T04:47:34;101749.25;;;5.43;87.04
3294;BME280;1659;51.470;6.770;2023-02-01T04:50:00;101737.91;;;5.44;87.12
3294;BME280;1659;51.470;6.770;2023-02-01T04:52:27;101745.81;;;5.45;87.54
3294;BME280;1659;51.470;6.770;2023-02-01T04:54:53;101744.91;;;5.45;86.83
3294;BME280;1659;51.470;6.770;2023-02-01T04:57:22;101738.78;;;5.44;87.65
3294;BME280;1659;51.470;6.770;2023-02-01T04:59:50;101732.69;;;5.45;86.52
3294;BME280;1659;51.470;6.770;2023-02-01T05:02:17;101737.00;;;5.42;86.56
3294;BME280;1659;51.470;6.770;2023-02-01T05:04:43;101735.19;;;5.39;86.52
3294;BME280;1659;51.470;6.770;2023-02-01T05:07:10;101744.72;;;5.34;86.90
3294;BME280;1659;51.470;6.770;2023-02-01T05:09:36;101735.03;;;5.30;86.61
3294;BME280;1659;51.470;6.770;2023-02-01T05:12:04;101739.34;;;5.26;86.69
3294;BME280;1659;51.470;6.770;2023-02-01T05:14:48;101739.25;;;5.22;86.63
3294;BME280;1659;51.470;6.770;2023-02-01T05:17:16;101738.28;;;5.17;87.03
3294;BME280;1659;51.470;6.770;2023-02-01T05:19:42;101735.59;;;5.14;87.11
3294;BME280;1659;51.470;6.770;2023-02-01T05:22:09;101734.63;;;5.10;86.94
3294;BME280;1659;51.470;6.770;2023-02-01T05:24:35;101734.59;;;5.07;87.20
3294;BME280;1659;51.470;6.770;2023-02-01T05:27:02;101743.28;;;5.04;87.94
3294;BME280;1659;51.470;6.770;2023-02-01T05:29:29;101742.31;;;5.01;87.72
3294;BME280;1659;51.470;6.770;2023-02-01T05:31:55;101725.75;;;5.00;87.58
3294;BME280;1659;51.470;6.770;2023-02-01T05:34:23;101732.69;;;4.98;87.91
3294;BME280;1659;51.470;6.770;2023-02-01T05:36:50;101736.16;;;4.97;88.02
3294;BME280;1659;51.470;6.770;2023-02-01T05:39:17;101737.00;;;4.96;87.76
3294;BME280;1659;51.470;6.770;2023-02-01T05:41:44;101726.50;;;4.96;87.82
3294;BME280;1659;51.470;6.770;2023-02-01T05:44:11;101734.38;;;4.96;87.69
3294;BME280;1659;51.470;6.770;2023-02-01T05:46:37;101723.88;;;4.96;87.48
3294;BME280;1659;51.470;6.770;2023-02-01T05:49:04;101730.84;;;4.94;87.52
3294;BME280;1659;51.470;6.770;2023-02-01T05:51:32;101716.88;;;4.94;87.94
3294;BME280;1659;51.470;6.770;2023-02-01T05:53:59;101716.84;;;4.92;88.07
3294;BME280;1659;51.470;6.770;2023-02-01T05:56:26;101706.31;;;4.90;88.11
3294;BME280;1659;51.470;6.770;2023-02-01T05:58:53;101711.59;;;4.92;88.16
3294;BME280;1659;51.470;6.770;2023-02-01T06:01:20;101719.56;;;4.97;88.27
3294;BME280;1659;51.470;6.770;2023-02-01T06:03:46;101709.16;;;5.01;88.45
3294;BME280;1659;51.470;6.770;2023-02-01T06:06:13;101717.09;;;5.06;88.50
3294;BME280;1659;51.470;6.770;2023-02-01T06:08:41;101704.97;;;5.11;88.28
3294;BME280;1659;51.470;6.770;2023-02-01T06:11:08;101716.41;;;5.15;88.56
3294;BME280;1659;51.470;6.770;2023-02-01T06:13:34;101731.31;;;5.19;88.32
3294;BME280;1659;51.470;6.770;2023-02-01T06:16:04;101728.78;;;5.23;88.69
3294;BME280;1659;51.470;6.770;2023-02-01T06:18:32;101741.13;;;5.29;88.43
3294;BME280;1659;51.470;6.770;2023-02-01T06:20:59;101735.97;;;5.34;88.28
3294;BME280;1659;51.470;6.770;2023-02-01T06:23:26;101752.63;;;5.37;88.52
3294;BME280;1659;51.470;6.770;2023-02-01T06:25:59;101741.31;;;5.40;88.59
3294;BME280;1659;51.470;6.770;2023-02-01T06:28:26;101745.78;;;5.44;88.56
3294;BME280;1659;51.470;6.770;2023-02-01T06:30:52;101737.06;;;5.46;88.50
3294;BME280;1659;51.470;6.770;2023-02-01T06:33:19;101742.38;;;5.49;88.29
3294;BME280;1659;51.470;6.770;2023-02-01T06:35:45;101742.44;;;5.53;88.03
3294;BME280;1659;51.470;6.770;2023-02-01T06:38:13;101745.09;;;5.54;88.39
3294;BME280;1659;51.470;6.770;2023-02-01T06:40:40;101746.03;;;5.58;88.08
3294;BME280;1659;51.470;6.770;2023-02-01T06:43:09;101741.69;;;5.60;87.98
3294;BME280;1659;51.470;6.770;2023-02-01T06:45:35;101740.84;;;5.62;87.64
3294;BME280;1659;51.470;6.770;2023-02-01T06:48:02;101741.78;;;5.64;87.63
3294;BME280;1659;51.470;6.770;2023-02-01T06:50:29;101748.75;;;5.65;86.99
3294;BME280;1659;51.470;6.770;2023-02-01T06:52:56;101745.34;;;5.68;87.55
3294;BME280;1659;51.470;6.770;2023-02-01T06:55:22;101743.59;;;5.68;87.74
3294;BME280;1659;51.470;6.770;2023-02-01T06:57:53;101752.31;;;5.69;87.55
3294;BME280;1659;51.470;6.770;2023-02-01T07:00:22;101749.72;;;5.71;87.85
3294;BME280;1659;51.470;6.770;2023-02-01T07:02:49;101754.13;;;5.72;87.35
3294;BME280;1659;51.470;6.770;2023-02-01T07:05:16;101750.63;;;5.73;87.52
3294;BME280;1659;51.470;6.770;2023-02-01T07:07:43;101756.78;;;5.73;87.51
3294;BME280;1659;51.470;6.770;2023-02-01T07:10:10;101755.03;;;5.74;87.00
3294;BME280;1659;51.470;6.770;2023-02-01T07:12:37;101762.94;;;5.75;86.99
3294;BME280;1659;51.470;6.770;2023-02-01T07:15:05;101752.44;;;5.75;87.72
3294;BME280;1659;51.470;6.770;2023-02-01T07:17:33;101762.97;;;5.77;87.54
3294;BME280;1659;51.470;6.770;2023-02-01T07:20:00;101761.22;;;5.77;87.45
3294;BME280;1659;51.470;6.770;2023-02-01T07:22:26;101768.22;;;5.80;86.75
3294;BME280;1659;51.470;6.770;2023-02-01T07:25:02;101756.91;;;5.81;86.39
3294;BME280;1659;51.470;6.770;2023-02-01T07:27:29;101760.44;;;5.83;86.70
3294;BME280;1659;51.470;6.770;2023-02-01T07:29:56;101769.16;;;5.83;86.91
3294;BME280;1659;51.470;6.770;2023-02-01T07:32:27;101754.34;;;5.84;86.30
3294;BME280;1659;51.470;6.770;2023-02-01T07:34:55;101760.44;;;5.84;86.27
3294;BME280;1659;51.470;6.770;2023-02-01T07:37:21;101773.59;;;5.86;87.10
3294;BME280;1659;51.470;6.770;2023-02-01T07:39:49;101762.22;;;5.87;86.92
3294;BME280;1659;51.470;6.770;2023-02-01T07:42:15;101764.84;;;5.85;86.88
3294;BME280;1659;51.470;6.770;2023-02-01T07:44:42;101763.09;;;5.86;86.57
3294;BME280;1659;51.470;6.770;2023-02-01T07:47:08;101768.38;;;5.88;86.76
3294;BME280;1659;51.470;6.770;2023-02-01T07:49:35;101772.75;;;5.89;86.41
3294;BME280;1659;51.470;6.770;2023-02-01T07:52:03;101776.25;;;5.88;86.38
3294;BME280;1659;51.470;6.770;2023-02-01T07:54:30;101780.63;;;5.89;86.35
3294;BME280;1659;51.470;6.770;2023-02-01T07:56:56;101776.25;;;5.88;86.65
3294;BME280;1659;51.470;6.770;2023-02-01T07:59:23;101779.75;;;5.88;86.32
3294;BME280;1659;51.470;6.770;2023-02-01T08:01:49;101775.38;;;5.89;87.23
3294;BME280;1659;51.470;6.770;2023-02-01T08:04:16;101780.66;;;5.90;86.47
3294;BME280;1659;51.470;6.770;2023-02-01T08:06:42;101778.00;;;5.89;86.96
3294;BME280;1659;51.470;6.770;2023-02-01T08:09:10;101783.25;;;5.89;87.22
3294;BME280;1659;51.470;6.770;2023-02-01T08:11:37;101783.25;;;5.89;86.57
3294;BME280;1659;51.470;6.770;2023-02-01T08:14:04;101781.47;;;5.86;87.11
3294;BME280;1659;51.470;6.770;2023-02-01T08:16:31;101784.09;;;5.86;86.30
3294;BME280;1659;51.470;6.770;2023-02-01T08:19:00;101787.59;;;5.86;86.81
3294;BME280;1659;51.470;6.770;2023-02-01T08:21:27;101784.13;;;5.88;86.95
3294;BME280;1659;51.470;6.770;2023-02-01T08:24:02;101795.53;;;5.90;87.03
3294;BME280;1659;51.470;6.770;2023-02-01T08:26:30;101788.56;;;5.92;86.97
3294;BME280;1659;51.470;6.770;2023-02-01T08:28:58;101795.63;;;5.96;86.66
3294;BME280;1659;51.470;6.770;2023-02-01T08:31:27;101787.81;;;5.99;86.42
3294;BME280;1659;51.470;6.770;2023-02-01T08:33:56;101787.03;;;6.03;86.63
3294;BME280;1659;51.470;6.770;2023-02-01T08:36:24;101798.50;;;6.10;86.81
3294;BME280;1659;51.470;6.770;2023-02-01T08:38:51;101812.53;;;6.13;86.91
3294;BME280;1659;51.470;6.770;2023-02-01T08:41:20;101799.44;;;6.15;86.10
3294;BME280;1659;51.470;6.770;2023-02-01T08:43:48;101796.00;;;6.17;86.39
3294;BME280;1659;51.470;6.770;2023-02-01T08:46:15;101803.03;;;6.20;85.80
3294;BME280;1659;51.470;6.770;2023-02-01T08:48:42;101809.22;;;6.23;85.85
3294;BME280;1659;51.470;6.770;2023-02-01T08:51:10;101812.78;;;6.26;85.92
3294;BME280;1659;51.470;6.770;2023-02-01T08:53:38;101796.16;;;6.27;85.59
3294;BME280;1659;51.470;6.770;2023-02-01T08:56:06;101818.94;;;6.31;86.04
3294;BME280;1659;51.470;6.770;2023-02-01T08:58:34;101809.41;;;6.34;86.23
3294;BME280;1659;51.470;6.770;2023-02-01T09:01:04;101816.41;;;6.35;85.65
3294;BME280;1659;51.470;6.770;2023-02-01T09:03:31;101803.25;;;6.34;85.78
3294;BME280;1659;51.470;6.770;2023-02-01T09:06:00;101797.97;;;6.32;85.34
3294;BME280;1659;51.470;6.770;2023-02-01T09:08:26;101794.47;;;6.32;85.43
3294;BME280;1659;51.470;6.770;2023-02-01T09:10:53;101786.56;;;6.30;85.96
3294;BME280;1659;51.470;6.770;2023-02-01T09:13:19;101795.34;;;6.32;86.08
3294;BME280;1659;51.470;6.770;2023-02-01T09:15:50;101783.09;;;6.31;85.94
3294;BME280;1659;51.470;6.770;2023-02-01T09:18:18;101784.03;;;6.35;85.91
3294;BME280;1659;51.470;6.770;2023-02-01T09:20:44;101784.94;;;6.37;85.71
3294;BME280;1659;51.470;6.770;2023-02-01T09:23:11;101797.19;;;6.36;85.23
3294;BME280;1659;51.470;6.770;2023-02-01T09:25:38;101786.66;;;6.35;85.54
3294;BME280;1659;51.470;6.770;2023-02-01T09:28:05;101789.34;;;6.38;85.16
3294;BME280;1659;51.470;6.770;2023-02-01T09:30:34;101789.34;;;6.41;85.35
3294;BME280;1659;51.470;6.770;2023-02-01T09:33:01;101779.81;;;6.46;85.06
3294;BME280;1659;51.470;6.770;2023-02-01T09:35:29;101767.66;;;6.53;85.39
3294;BME280;1659;51.470;6.770;2023-02-01T09:37:55;101777.34;;;6.58;85.11
3294;BME280;1659;51.470;6.770;2023-02-01T09:40:22;101783.53;;;6.60;84.65
3294;BME280;1659;51.470;6.770;2023-02-01T09:43:05;101775.66;;;6.60;84.47
3294;BME280;1659;51.470;6.770;2023-02-01T09:45:43;101777.44;;;6.63;84.75
3294;BME280;1659;51.470;6.770;2023-02-01T09:48:13;101776.59;;;6.67;84.63
3294;BME280;1659;51.470;6.770;2023-02-01T09:50:47;101780.16;;;6.69;84.48
3294;BME280;1659;51.470;6.770;2023-02-01T09:53:20;101781.94;;;6.73;84.50
3294;BME280;1659;51.470;6.770;2023-02-01T09:55:50;101773.31;;;6.82;85.13
3294;BME280;1659;51.470;6.770;2023-02-01T09:58:21;101767.25;;;6.89;83.95
3294;BME280;1659;51.470;6.770;2023-02-01T10:00:51;101766.44;;;6.95;84.02
3294;BME280;1659;51.470;6.770;2023-02-01T10:03:19;101763.88;;;6.99;84.24
3294;BME280;1659;51.470;6.770;2023-02-01T10:06:12;101771.81;;;7.06;84.21
3294;BME280;1659;51.470;6.770;2023-02-01T10:08:57;101779.84;;;7.15;84.03
3294;BME280;1659;51.470;6.770;2023-02-01T10:11:32;101775.63;;;7.31;83.58
3294;BME280;1659;51.470;6.770;2023-02-01T10:14:26;101769.66;;;7.47;83.22
3294;BME280;1659;51.470;6.770;2023-02-01T10:17:03;101774.22;;;7.64;83.07
3294;BME280;1659;51.470;6.770;2023-02-01T10:19:39;101759.31;;;7.64;83.04
3294;BME280;1659;51.470;6.770;2023-02-01T10:22:18;101743.47;;;7.58;82.61
3294;BME280;1659;51.470;6.770;2023-02-01T10:24:53;101756.53;;;7.49;81.85
3294;BME280;1659;51.470;6.770;2023-02-01T10:27:30;101779.28;;;7.45;82.01
3294;BME280;1659;51.470;6.770;2023-02-01T10:30:04;101764.28;;;7.36;82.50
3294;BME280;1659;51.470;6.770;2023-02-01T10:32:33;101768.56;;;7.27;81.62
3294;BME280;1659;51.470;6.770;2023-02-01T10:35:02;101765.84;;;7.19;82.08
3294;BME280;1659;51.470;6.770;2023-02-01T10:37:32;101766.69;;;7.15;81.78
3294;BME280;1659;51.470;6.770;2023-02-01T10:40:01;101765.75;;;7.10;82.18
3294;BME280;1659;51.470;6.770;2023-02-01T10:42:32;101774.47;;;7.07;81.98
3294;BME280;1659;51.470;6.770;2023-02-01T10:45:02;101776.28;;;7.10;81.64
3294;BME280;1659;51.470;6.770;2023-02-01T10:47:29;101765.78;;;7.14;81.61
3294;BME280;1659;51.470;6.770;2023-02-01T10:50:02;101774.63;;;7.19;81.10
3294;BME280;1659;51.470;6.770;2023-02-01T10:52:38;101755.44;;;7.25;81.47
3294;BME280;1659;51.470;6.770;2023-02-01T10:55:26;101763.34;;;7.30;80.94
3294;BME280;1659;51.470;6.770;2023-02-01T10:57:56;101758.97;;;7.32;81.20
3294;BME280;1659;51.470;6.770;2023-02-01T11:00:23;101755.47;;;7.31;80.73
3294;BME280;1659;51.470;6.770;2023-02-01T11:02:50;101754.63;;;7.35;80.75
3294;BME280;1659;51.470;6.770;2023-02-01T11:05:17;101757.34;;;7.42;81.04
3294;BME280;1659;51.470;6.770;2023-02-01T11:07:49;101748.63;;;7.49;81.63
3294;BME280;1659;51.470;6.770;2023-02-01T11:10:35;101741.69;;;7.54;80.88
3294;BME280;1659;51.470;6.770;2023-02-01T11:13:03;101743.44;;;7.55;80.77
3294;BME280;1659;51.470;6.770;2023-02-01T11:15:30;101734.66;;;7.54;80.70
3294;BME280;1659;51.470;6.770;2023-02-01T11:18:14;101741.66;;;7.52;80.51
3294;BME280;1659;51.470;6.770;2023-02-01T11:20:42;101739.91;;;7.51;80.76
3294;BME280;1659;51.470;6.770;2023-02-01T11:23:15;101732.88;;;7.50;80.97
3294;BME280;1659;51.470;6.770;2023-02-01T11:25:51;101725.88;;;7.52;80.35
3294;BME280;1659;51.470;6.770;2023-02-01T11:28:21;101722.41;;;7.53;80.82
3294;BME280;1659;51.470;6.770;2023-02-01T11:30:49;101711.88;;;7.55;80.51
3294;BME280;1659;51.470;6.770;2023-02-01T11:33:19;101696.97;;;7.55;80.91
3294;BME280;1659;51.470;6.770;2023-02-01T11:35:49;101697.00;;;7.59;80.60
3294;BME280;1659;51.470;6.770;2023-02-01T11:38:30;101692.63;;;7.59;80.06
3294;BME280;1659;51.470;6.770;2023-02-01T11:41:12;101700.50;;;7.59;80.33
3294;BME280;1659;51.470;6.770;2023-02-01T11:43:51;101699.63;;;7.57;80.24
3294;BME280;1659;51.470;6.770;2023-02-01T11:46:19;101693.44;;;7.50;80.58
3294;BME280;1659;51.470;6.770;2023-02-01T11:48:51;101699.47;;;7.40;80.97
3294;BME280;1659;51.470;6.770;2023-02-01T11:51:31;101703.75;;;7.27;80.71
3294;BME280;1659;51.470;6.770;2023-02-01T11:54:18;101700.09;;;7.14;81.22
3294;BME280;1659;51.470;6.770;2023-02-01T11:56:57;101680.72;;;7.05;81.94
3294;BME280;1659;51.470;6.770;2023-02-01T11:59:37;101685.00;;;6.95;82.20
3294;BME280;1659;51.470;6.770;2023-02-01T12:02:32;101690.19;;;6.89;82.75
3294;BME280;1659;51.470;6.770;2023-02-01T12:05:24;101682.25;;;6.86;83.16
3294;BME280;1659;51.470;6.770;2023-02-01T12:08:37;101690.97;;;6.83;83.20
3294;BME280;1659;51.470;6.770;2023-02-01T12:11:25;101683.09;;;6.83;83.38
3294;BME280;1659;51.470;6.770;2023-02-01T12:14:00;101677.84;;;6.83;83.69
3294;BME280;1659;51.470;6.770;2023-02-01T12:16:37;101671.75;;;6.86;83.04
3294;BME280;1659;51.470;6.770;2023-02-01T12:19:23;101674.44;;;6.90;83.07
3294;BME280;1659;51.470;6.770;2023-02-01T12:22:04;101673.59;;;6.93;83.27
3294;BME280;1659;51.470;6.770;2023-02-01T12:27:46;101665.78;;;6.99;83.58
3294;BME280;1659;51.470;6.770;2023-02-01T12:30:48;101671.03;;;7.02;82.81
3294;BME280;1659;51.470;6.770;2023-02-01T12:33:29;101655.28;;;7.04;82.84
3294;BME280;1659;51.470;6.770;2023-02-01T12:36:07;101663.25;;;7.08;82.62
3294;BME280;1659;51.470;6.770;2023-02-01T12:38:44;101658.03;;;7.11;82.63
3294;BME280;1659;51.470;6.770;2023-02-01T12:41:26;101648.41;;;7.15;82.04
3294;BME280;1659;51.470;6.770;2023-02-01T12:43:58;101655.44;;;7.19;82.33
3294;BME280;1659;51.470;6.770;2023-02-01T12:46:28;101651.13;;;7.24;81.37
3294;BME280;1659;51.470;6.770;2023-02-01T12:49:01;101655.53;;;7.30;80.75
3294;BME280;1659;51.470;6.770;2023-02-01T12:51:33;101644.19;;;7.35;80.66
3294;BME280;1659;51.470;6.770;2023-02-01T12:54:03;101651.25;;;7.40;80.24
3294;BME280;1659;51.470;6.770;2023-02-01T12:56:38;101648.66;;;7.43;80.46
3294;BME280;1659;51.470;6.770;2023-02-01T12:59:16;101648.66;;;7.43;80.06
3294;BME280;1659;51.470;6.770;2023-02-01T13:01:49;101642.47;;;7.39;80.51
3294;BME280;1659;51.470;6.770;2023-02-01T13:04:26;101643.31;;;7.35;80.68
3294;BME280;1659;51.470;6.770;2023-02-01T13:07:01;101643.31;;;7.33;80.95
3294;BME280;1659;51.470;6.770;2023-02-01T13:09:38;101652.94;;;7.33;81.10
3294;BME280;1659;51.470;6.770;2023-02-01T13:12:12;101649.44;;;7.31;81.16
3294;BME280;1659;51.470;6.770;2023-02-01T13:14:44;101648.53;;;7.30;81.15
3294;BME280;1659;51.470;6.770;2023-02-01T13:17:16;101646.78;;;7.29;81.06
3294;BME280;1659;51.470;6.770;2023-02-01T13:19:48;101642.41;;;7.30;81.16
3294;BME280;1659;51.470;6.770;2023-02-01T13:22:20;101646.81;;;7.31;80.94
3294;BME280;1659;51.470;6.770;2023-02-01T13:24:50;101643.31;;;7.33;81.46
3294;BME280;1659;51.470;6.770;2023-02-01T13:27:18;101638.94;;;7.37;81.53
3294;BME280;1659;51.470;6.770;2023-02-01T13:29:51;101634.59;;;7.41;80.87
3294;BME280;1659;51.470;6.770;2023-02-01T13:35:28;101634.66;;;7.47;80.03
3294;BME280;1659;51.470;6.770;2023-02-01T13:38:30;101637.31;;;7.50;80.03
3294;BME280;1659;51.470;6.770;2023-02-01T13:41:11;101632.06;;;7.54;80.57
3294;BME280;1659;51.470;6.770;2023-02-01T13:43:40;101636.50;;;7.59;80.16
3294;BME280;1659;51.470;6.770;2023-02-01T13:46:11;101626.00;;;7.63;80.18
3294;BME280;1659;51.470;6.770;2023-02-01T13:48:45;101630.44;;;7.66;79.74
3294;BME280;1659;51.470;6.770;2023-02-01T13:51:13;101642.69;;;7.67;79.88
3294;BME280;1659;51.470;6.770;2023-02-01T13:53:46;101632.19;;;7.68;79.97